sensor_id;sensor_type;location;lat;lon;timestamp;pressure;altitude;pressure_sealevel;temperature;humidity
3150;BME280;32503;47.748;8.960;2023-02-19T00:01:10;97579.81;;;13.00;56.92
3150;BME280;32503;47.748;8.960;2023-02-19T00:03:38;97587.97;;;13.00;57.16
3150;BME280;32503;47.748;8.960;2023-02-19T00:06:08;97569.59;;;12.94;57.04
3150;BME280;32503;47.748;8.960;2023-02-19T00:08:37;97556.50;;;12.80;56.60
3150;BME280;32503;47.748;8.960;2023-02-19T00:11:06;97581.69;;;12.96;56.71
3150;BME280;32503;47.748;8.960;2023-02-19T00:13:35;97578.19;;;12.96;56.87
3150;BME280;32503;47.748;8.960;2023-02-19T00:16:05;97585.91;;;12.94;57.00
3150;BME280;32503;47.748;8.960;2023-02-19T00:18:35;97578.19;;;12.96;56.91
3150;BME280;32503;47.748;8.960;2023-02-19T00:21:03;97580.47;;;12.94;56.89
3150;BME280;32503;47.748;8.960;2023-02-19T00:23:30;97576.44;;;12.87;56.67
3150;BME280;32503;47.748;8.960;2023-02-19T00:26:01;97581.69;;;12.80;57.08
3150;BME280;32503;47.748;8.960;2023-02-19T00:28:30;97579.41;;;12.82;56.98
3150;BME280;32503;47.748;8.960;2023-02-19T00:31:04;97577.13;;;12.84;56.71
3150;BME280;32503;47.748;8.960;2023-02-19T00:33:31;97580.56;;;12.81;56.74
3150;BME280;32503;47.748;8.960;2023-02-19T00:36:01;97574.50;;;12.72;56.77
3150;BME280;32503;47.748;8.960;2023-02-19T00:38:28;97576.78;;;12.70;57.00
3150;BME280;32503;47.748;8.960;2023-02-19T00:40:57;97567.53;;;12.71;56.91
3150;BME280;32503;47.748;8.960;2023-02-19T00:43:24;97564.81;;;12.55;57.45
3150;BME280;32503;47.748;8.960;2023-02-19T00:45:51;97552.97;;;12.47;57.58
3150;BME280;32503;47.748;8.960;2023-02-19T00:48:18;97564.63;;;12.48;57.47
3150;BME280;32503;47.748;8.960;2023-02-19T00:50:45;97570.16;;;12.51;57.81
3150;BME280;32503;47.748;8.960;2023-02-19T00:53:13;97556.16;;;12.49;57.57
3150;BME280;32503;47.748;8.960;2023-02-19T00:55:40;97573.22;;;12.50;57.33
3150;BME280;32503;47.748;8.960;2023-02-19T00:58:08;97571.53;;;12.45;57.88
3150;BME280;32503;47.748;8.960;2023-02-19T01:00:35;97575.03;;;12.46;57.45
3150;BME280;32503;47.748;8.960;2023-02-19T01:03:02;97576.16;;;12.45;57.58
3150;BME280;32503;47.748;8.960;2023-02-19T01:05:29;97555.59;;;12.28;58.02
3150;BME280;32503;47.748;8.960;2023-02-19T01:07:56;97558.94;;;12.37;58.17
3150;BME280;32503;47.748;8.960;2023-02-19T01:10:26;97561.28;;;12.39;58.29
3150;BME280;32503;47.748;8.960;2023-02-19T01:12:53;97562.78;;;12.36;57.78
3150;BME280;32503;47.748;8.960;2023-02-19T01:15:20;97571.59;;;12.33;58.19
3150;BME280;32503;47.748;8.960;2023-02-19T01:17:47;97572.19;;;12.26;57.78
3150;BME280;32503;47.748;8.960;2023-02-19T01:20:14;97573.69;;;12.24;58.65
3150;BME280;32503;47.748;8.960;2023-02-19T01:22:41;97563.88;;;12.19;58.15
3150;BME280;32503;47.748;8.960;2023-02-19T01:25:08;97560.06;;;12.20;58.23
3150;BME280;32503;47.748;8.960;2023-02-19T01:27:37;97566.59;;;12.19;58.22
3150;BME280;32503;47.748;8.960;2023-02-19T01:30:07;97562.22;;;12.14;58.75
3150;BME280;32503;47.748;8.960;2023-02-19T01:32:34;97559.78;;;12.09;58.76
3150;BME280;32503;47.748;8.960;2023-02-19T01:35:01;97569.03;;;12.08;59.08
3150;BME280;32503;47.748;8.960;2023-02-19T01:37:28;97566.31;;;12.08;58.94
3150;BME280;32503;47.748;8.960;2023-02-19T01:39:56;97557.22;;;12.01;59.09
3150;BME280;32503;47.748;8.960;2023-02-19T01:42:23;97554.94;;;12.03;59.04
3150;BME280;32503;47.748;8.960;2023-02-19T01:45:29;97530.50;;;11.87;58.91
3150;BME280;32503;47.748;8.960;2023-02-19T01:48:07;97534.56;;;11.93;59.00
3150;BME280;32503;47.748;8.960;2023-02-19T01:50:43;97533.16;;;11.99;59.43
3150;BME280;32503;47.748;8.960;2023-02-19T01:53:13;97528.44;;;11.96;59.05
3150;BME280;32503;47.748;8.960;2023-02-19T01:55:44;97513.69;;;11.93;59.03
3150;BME280;32503;47.748;8.960;2023-02-19T01:58:14;97518.97;;;11.90;59.68
3150;BME280;32503;47.748;8.960;2023-02-19T02:00:43;97522.63;;;11.82;59.44
3150;BME280;32503;47.748;8.960;2023-02-19T02:03:11;97531.88;;;11.81;59.62
3150;BME280;32503;47.748;8.960;2023-02-19T02:05:49;97519.97;;;11.69;59.33
3150;BME280;32503;47.748;8.960;2023-02-19T02:08:19;97524.88;;;11.80;59.61
3150;BME280;32503;47.748;8.960;2023-02-19T02:11:04;97507.09;;;11.66;59.82
3150;BME280;32503;47.748;8.960;2023-02-19T02:13:32;97518.94;;;11.74;59.54
3150;BME280;32503;47.748;8.960;2023-02-19T02:16:20;97517.25;;;11.69;60.24
3150;BME280;32503;47.748;8.960;2023-02-19T02:18:58;97509.72;;;11.63;60.25
3150;BME280;32503;47.748;8.960;2023-02-19T02:21:50;97500.56;;;11.67;60.32
3150;BME280;32503;47.748;8.960;2023-02-19T02:24:51;97501.19;;;11.76;59.84
3150;BME280;32503;47.748;8.960;2023-02-19T02:27:48;97491.75;;;11.70;60.22
3150;BME280;32503;47.748;8.960;2023-02-19T02:30:32;97504.59;;;11.73;60.58
3150;BME280;32503;47.748;8.960;2023-02-19T02:33:16;97483.63;;;11.70;60.20
3150;BME280;32503;47.748;8.960;2023-02-19T02:35:50;97480.91;;;11.70;60.18
3150;BME280;32503;47.748;8.960;2023-02-19T02:38:22;97468.06;;;11.67;60.46
3150;BME280;32503;47.748;8.960;2023-02-19T02:40:50;97486.97;;;11.80;60.64
3150;BME280;32503;47.748;8.960;2023-02-19T02:43:17;97495.06;;;11.92;60.53
3150;BME280;32503;47.748;8.960;2023-02-19T02:45:46;97485.22;;;11.87;60.12
3150;BME280;32503;47.748;8.960;2023-02-19T02:48:23;97492.78;;;11.94;60.11
3150;BME280;32503;47.748;8.960;2023-02-19T02:50:57;97481.50;;;11.92;59.97
3150;BME280;32503;47.748;8.960;2023-02-19T02:53:29;97487.69;;;11.92;60.79
3150;BME280;32503;47.748;8.960;2023-02-19T02:56:16;97509.03;;;11.94;60.62
3150;BME280;32503;47.748;8.960;2023-02-19T02:58:46;97513.19;;;11.75;60.71
3150;BME280;32503;47.748;8.960;2023-02-19T03:01:19;97521.06;;;11.81;61.62
3150;BME280;32503;47.748;8.960;2023-02-19T03:04:10;97516.75;;;11.80;61.02
3150;BME280;32503;47.748;8.960;2023-02-19T03:06:39;97518.06;;;11.86;61.38
3150;BME280;32503;47.748;8.960;2023-02-19T03:09:12;97521.59;;;11.86;61.30
3150;BME280;32503;47.748;8.960;2023-02-19T03:11:43;97504.19;;;11.87;60.79
3150;BME280;32503;47.748;8.960;2023-02-19T03:14:33;97508.59;;;11.92;61.13
3150;BME280;32503;47.748;8.960;2023-02-19T03:17:25;97503.53;;;11.90;61.27
3150;BME280;32503;47.748;8.960;2023-02-19T03:20:14;97493.97;;;11.81;61.16
3150;BME280;32503;47.748;8.960;2023-02-19T03:22:42;97508.25;;;11.93;60.87
3150;BME280;32503;47.748;8.960;2023-02-19T03:25:14;97506.00;;;11.83;61.75
3150;BME280;32503;47.748;8.960;2023-02-19T03:28:01;97519.91;;;11.82;61.51
3150;BME280;32503;47.748;8.960;2023-02-19T03:30:32;97516.22;;;11.74;61.63
3150;BME280;32503;47.748;8.960;2023-02-19T03:33:05;97517.78;;;11.75;61.70
3150;BME280;32503;47.748;8.960;2023-02-19T03:35:36;97533.16;;;11.71;62.30
3150;BME280;32503;47.748;8.960;2023-02-19T03:38:09;97519.28;;;11.72;61.86
3150;BME280;32503;47.748;8.960;2023-02-19T03:40:50;97524.09;;;11.79;61.78
3150;BME280;32503;47.748;8.960;2023-02-19T03:43:23;97515.63;;;11.81;62.07
3150;BME280;32503;47.748;8.960;2023-02-19T03:46:02;97507.59;;;11.84;61.49
3150;BME280;32503;47.748;8.960;2023-02-19T03:48:35;97501.81;;;11.86;61.63
3150;BME280;32503;47.748;8.960;2023-02-19T03:51:19;97508.13;;;11.90;61.84
3150;BME280;32503;47.748;8.960;2023-02-19T03:53:56;97481.88;;;11.78;61.30
3150;BME280;32503;47.748;8.960;2023-02-19T03:56:33;97485.56;;;11.86;61.95
3150;BME280;32503;47.748;8.960;2023-02-19T03:59:09;97474.28;;;11.84;61.74
3150;BME280;32503;47.748;8.960;2023-02-19T04:01:42;97475.00;;;11.81;61.32
3150;BME280;32503;47.748;8.960;2023-02-19T04:04:17;97473.59;;;11.87;61.58
3150;BME280;32503;47.748;8.960;2023-02-19T04:06:51;97483.13;;;11.81;61.26
3150;BME280;32503;47.748;8.960;2023-02-19T04:09:21;97477.91;;;11.88;61.18
3150;BME280;32503;47.748;8.960;2023-02-19T04:11:50;97477.09;;;11.87;61.62
3150;BME280;32503;47.748;8.960;2023-02-19T04:14:22;97467.41;;;11.86;61.37
3150;BME280;32503;47.748;8.960;2023-02-19T04:16:57;97472.69;;;11.95;61.35
3150;BME280;32503;47.748;8.960;2023-02-19T04:19:28;97474.19;;;11.80;61.58
3150;BME280;32503;47.748;8.960;2023-02-19T04:21:57;97499.19;;;11.89;61.63
3150;BME280;32503;47.748;8.960;2023-02-19T04:24:30;97484.00;;;11.85;61.81
3150;BME280;32503;47.748;8.960;2023-02-19T04:26:58;97484.25;;;11.80;61.81
3150;BME280;32503;47.748;8.960;2023-02-19T04:29:26;97489.31;;;11.81;62.24
3150;BME280;32503;47.748;8.960;2023-02-19T04:31:53;97499.88;;;11.70;62.20
3150;BME280;32503;47.748;8.960;2023-02-19T04:34:20;97476.03;;;11.48;62.64
3150;BME280;32503;47.748;8.960;2023-02-19T04:36:48;97503.91;;;11.76;61.85
3150;BME280;32503;47.748;8.960;2023-02-19T04:39:15;97492.19;;;11.72;62.38
3150;BME280;32503;47.748;8.960;2023-02-19T04:41:42;97505.41;;;11.90;61.68
3150;BME280;32503;47.748;8.960;2023-02-19T04:44:09;97500.47;;;11.92;61.53
3150;BME280;32503;47.748;8.960;2023-02-19T04:46:36;97499.78;;;11.95;61.96
3150;BME280;32503;47.748;8.960;2023-02-19T04:49:03;97525.38;;;11.98;61.92
3150;BME280;32503;47.748;8.960;2023-02-19T04:51:30;97505.88;;;11.92;61.81
3150;BME280;32503;47.748;8.960;2023-02-19T04:53:58;97519.78;;;11.90;61.54
3150;BME280;32503;47.748;8.960;2023-02-19T04:56:26;97511.41;;;11.95;61.32
3150;BME280;32503;47.748;8.960;2023-02-19T04:58:52;97516.03;;;11.95;61.21
3150;BME280;32503;47.748;8.960;2023-02-19T05:01:20;97514.44;;;11.94;61.68
3150;BME280;32503;47.748;8.960;2023-02-19T05:03:47;97508.25;;;11.93;61.63
3150;BME280;32503;47.748;8.960;2023-02-19T05:06:14;97504.47;;;11.98;61.41
3150;BME280;32503;47.748;8.960;2023-02-19T05:08:42;97498.63;;;11.96;61.48
3150;BME280;32503;47.748;8.960;2023-02-19T05:11:11;97499.78;;;11.95;61.96
3150;BME280;32503;47.748;8.960;2023-02-19T05:13:39;97492.19;;;11.72;61.88
3150;BME280;32503;47.748;8.960;2023-02-19T05:16:09;97491.94;;;11.77;61.21
3150;BME280;32503;47.748;8.960;2023-02-19T05:18:39;97471.38;;;11.76;61.37
3150;BME280;32503;47.748;8.960;2023-02-19T05:21:06;97483.63;;;11.70;61.90
3150;BME280;32503;47.748;8.960;2023-02-19T05:23:33;97486.09;;;11.75;61.31
3150;BME280;32503;47.748;8.960;2023-02-19T05:26:04;97493.97;;;11.81;60.86
3150;BME280;32503;47.748;8.960;2023-02-19T05:28:33;97502.44;;;11.79;61.03
3150;BME280;32503;47.748;8.960;2023-02-19T05:31:04;97496.44;;;11.73;61.32
3150;BME280;32503;47.748;8.960;2023-02-19T05:33:32;97514.97;;;11.71;62.08
3150;BME280;32503;47.748;8.960;2023-02-19T05:36:05;97507.34;;;11.61;61.62
3150;BME280;32503;47.748;8.960;2023-02-19T05:38:32;97517.69;;;11.71;61.31
3150;BME280;32503;47.748;8.960;2023-02-19T05:41:08;97518.50;;;11.72;61.74
3150;BME280;32503;47.748;8.960;2023-02-19T05:43:37;97529.22;;;11.68;61.39
3150;BME280;32503;47.748;8.960;2023-02-19T05:46:04;97528.53;;;11.71;61.30
3150;BME280;32503;47.748;8.960;2023-02-19T05:48:32;97528.88;;;11.70;61.57
3150;BME280;32503;47.748;8.960;2023-02-19T05:51:04;97524.97;;;11.55;62.63
3150;BME280;32503;47.748;8.960;2023-02-19T05:53:31;97543.69;;;11.60;62.13
3150;BME280;32503;47.748;8.960;2023-02-19T05:55:59;97547.66;;;11.50;62.29
3150;BME280;32503;47.748;8.960;2023-02-19T05:58:26;97556.16;;;11.49;62.80
3150;BME280;32503;47.748;8.960;2023-02-19T06:00:55;97548.72;;;11.46;62.44
3150;BME280;32503;47.748;8.960;2023-02-19T06:03:23;97553.78;;;11.47;62.87
3150;BME280;32503;47.748;8.960;2023-02-19T06:05:50;97556.59;;;11.51;63.10
3150;BME280;32503;47.748;8.960;2023-02-19T06:08:17;97552.16;;;11.58;62.17
3150;BME280;32503;47.748;8.960;2023-02-19T06:10:44;97552.25;;;11.62;61.92
3150;BME280;32503;47.748;8.960;2023-02-19T06:13:11;97561.16;;;11.63;62.03
3150;BME280;32503;47.748;8.960;2023-02-19T06:15:38;97571.91;;;11.59;62.39
3150;BME280;32503;47.748;8.960;2023-02-19T06:18:07;97574.41;;;11.52;62.61
3150;BME280;32503;47.748;8.960;2023-02-19T06:20:34;97581.94;;;11.58;62.13
3150;BME280;32503;47.748;8.960;2023-02-19T06:23:01;97578.47;;;11.58;62.19
3150;BME280;32503;47.748;8.960;2023-02-19T06:25:28;97570.09;;;11.63;62.58
3150;BME280;32503;47.748;8.960;2023-02-19T06:27:55;97570.34;;;11.58;62.02
3150;BME280;32503;47.748;8.960;2023-02-19T06:30:22;97578.25;;;11.51;62.52
3150;BME280;32503;47.748;8.960;2023-02-19T06:32:51;97561.13;;;11.34;63.07
3150;BME280;32503;47.748;8.960;2023-02-19T06:35:20;97581.88;;;11.43;63.31
3150;BME280;32503;47.748;8.960;2023-02-19T06:37:48;97592.38;;;11.44;63.28
3150;BME280;32503;47.748;8.960;2023-02-19T06:40:15;97560.59;;;11.29;63.41
3150;BME280;32503;47.748;8.960;2023-02-19T06:42:42;97590.88;;;11.47;63.49
3150;BME280;32503;47.748;8.960;2023-02-19T06:45:09;97585.25;;;11.39;63.44
3150;BME280;32503;47.748;8.960;2023-02-19T06:47:36;97591.94;;;11.42;63.61
3150;BME280;32503;47.748;8.960;2023-02-19T06:50:04;97593.81;;;11.42;63.50
3150;BME280;32503;47.748;8.960;2023-02-19T06:52:33;97600.50;;;11.44;63.94
3150;BME280;32503;47.748;8.960;2023-02-19T06:55:00;97581.47;;;11.28;63.34
3150;BME280;32503;47.748;8.960;2023-02-19T06:57:27;97612.06;;;11.57;63.61
3150;BME280;32503;47.748;8.960;2023-02-19T06:59:54;97611.56;;;11.80;63.01
3150;BME280;32503;47.748;8.960;2023-02-19T07:02:21;97602.31;;;11.81;62.35
3150;BME280;32503;47.748;8.960;2023-02-19T07:04:48;97610.53;;;11.97;61.69
3150;BME280;32503;47.748;8.960;2023-02-19T07:07:15;97622.16;;;11.97;62.41
3150;BME280;32503;47.748;8.960;2023-02-19T07:09:43;97616.97;;;11.92;62.39
3150;BME280;32503;47.748;8.960;2023-02-19T07:12:10;97622.84;;;11.82;62.46
3150;BME280;32503;47.748;8.960;2023-02-19T07:14:37;97602.91;;;11.74;62.45
3150;BME280;32503;47.748;8.960;2023-02-19T07:17:04;97622.59;;;11.87;62.16
3150;BME280;32503;47.748;8.960;2023-02-19T07:19:31;97641.13;;;11.97;62.30
3150;BME280;32503;47.748;8.960;2023-02-19T07:21:58;97634.16;;;12.12;61.51
3150;BME280;32503;47.748;8.960;2023-02-19T07:24:25;97636.34;;;12.06;61.88
3150;BME280;32503;47.748;8.960;2023-02-19T07:26:54;97638.84;;;12.27;61.18
3150;BME280;32503;47.748;8.960;2023-02-19T07:29:21;97644.94;;;12.52;60.58
3150;BME280;32503;47.748;8.960;2023-02-19T07:31:48;97645.69;;;12.81;59.29
3150;BME280;32503;47.748;8.960;2023-02-19T07:34:16;97629.41;;;12.81;59.01
3150;BME280;32503;47.748;8.960;2023-02-19T07:36:43;97654.00;;;12.88;58.67
3150;BME280;32503;47.748;8.960;2023-02-19T07:39:12;97652.66;;;13.14;58.08
3150;BME280;32503;47.748;8.960;2023-02-19T07:41:40;97655.75;;;13.64;57.62
3150;BME280;32503;47.748;8.960;2023-02-19T07:44:09;97659.19;;;14.78;54.02
3150;BME280;32503;47.748;8.960;2023-02-19T07:46:38;97662.97;;;15.43;51.61
3150;BME280;32503;47.748;8.960;2023-02-19T07:49:05;97665.53;;;15.85;50.01
3150;BME280;32503;47.748;8.960;2023-02-19T07:51:32;97662.72;;;15.78;50.50
3150;BME280;32503;47.748;8.960;2023-02-19T07:54:00;97677.44;;;15.24;51.09
3150;BME280;32503;47.748;8.960;2023-02-19T07:56:27;97680.19;;;14.77;52.41
3150;BME280;32503;47.748;8.960;2023-02-19T07:58:54;97678.72;;;14.21;53.87
3150;BME280;32503;47.748;8.960;2023-02-19T08:01:23;97687.19;;;13.81;55.21
3150;BME280;32503;47.748;8.960;2023-02-19T08:04:12;97682.53;;;13.46;56.58
3150;BME280;32503;47.748;8.960;2023-02-19T08:06:39;97691.28;;;13.23;57.41
3150;BME280;32503;47.748;8.960;2023-02-19T08:09:06;97701.34;;;13.07;57.79
3150;BME280;32503;47.748;8.960;2023-02-19T08:11:33;97704.69;;;13.00;57.90
3150;BME280;32503;47.748;8.960;2023-02-19T08:14:18;97695.13;;;12.75;58.68
3150;BME280;32503;47.748;8.960;2023-02-19T08:16:50;97701.84;;;12.81;58.70
3150;BME280;32503;47.748;8.960;2023-02-19T08:19:18;97693.81;;;12.84;58.61
3150;BME280;32503;47.748;8.960;2023-02-19T08:21:45;97685.47;;;12.77;58.55
3150;BME280;32503;47.748;8.960;2023-02-19T08:24:13;97697.59;;;12.96;58.27
3150;BME280;32503;47.748;8.960;2023-02-19T08:26:40;97720.19;;;13.00;58.28
3150;BME280;32503;47.748;8.960;2023-02-19T08:29:07;97720.78;;;13.25;57.60
3150;BME280;32503;47.748;8.960;2023-02-19T08:31:34;97713.00;;;13.23;57.35
3150;BME280;32503;47.748;8.960;2023-02-19T08:34:04;97735.63;;;13.27;57.01
3150;BME280;32503;47.748;8.960;2023-02-19T08:36:31;97740.91;;;13.52;56.89
3150;BME280;32503;47.748;8.960;2023-02-19T08:38:58;97745.97;;;13.70;56.25
3150;BME280;32503;47.748;8.960;2023-02-19T08:41:25;97734.13;;;13.97;55.82
3150;BME280;32503;47.748;8.960;2023-02-19T08:43:52;97752.72;;;14.50;53.92
3150;BME280;32503;47.748;8.960;2023-02-19T08:46:20;97753.84;;;14.65;53.33
3150;BME280;32503;47.748;8.960;2023-02-19T08:48:47;97749.88;;;15.05;57.59
3150;BME280;32503;47.748;8.960;2023-02-19T08:51:15;97756.28;;;15.86;58.20
3150;BME280;32503;47.748;8.960;2023-02-19T08:53:43;97753.31;;;16.25;50.60
3150;BME280;32503;47.748;8.960;2023-02-19T08:56:12;97754.44;;;16.20;49.63
3150;BME280;32503;47.748;8.960;2023-02-19T08:58:40;97762.69;;;15.97;49.64
3150;BME280;32503;47.748;8.960;2023-02-19T09:01:08;97778.28;;;15.50;50.43
3150;BME280;32503;47.748;8.960;2023-02-19T09:03:36;97770.41;;;14.99;51.10
3150;BME280;32503;47.748;8.960;2023-02-19T09:06:03;97753.75;;;14.62;52.27
3150;BME280;32503;47.748;8.960;2023-02-19T09:08:32;97771.47;;;14.94;52.18
3150;BME280;32503;47.748;8.960;2023-02-19T09:11:00;97742.28;;;15.14;51.65
3150;BME280;32503;47.748;8.960;2023-02-19T09:13:28;97744.56;;;15.59;50.62
3150;BME280;32503;47.748;8.960;2023-02-19T09:15:55;97744.03;;;15.99;49.85
3150;BME280;32503;47.748;8.960;2023-02-19T09:18:23;97741.31;;;16.29;49.46
3150;BME280;32503;47.748;8.960;2023-02-19T09:20:50;97740.94;;;16.65;48.53
3150;BME280;32503;47.748;8.960;2023-02-19T09:23:17;97754.88;;;16.90;48.16
3150;BME280;32503;47.748;8.960;2023-02-19T09:25:45;97752.28;;;17.04;47.40
3150;BME280;32503;47.748;8.960;2023-02-19T09:28:13;97738.56;;;16.97;47.17
3150;BME280;32503;47.748;8.960;2023-02-19T09:30:41;97733.03;;;16.90;47.64
3150;BME280;32503;47.748;8.960;2023-02-19T09:33:08;97748.69;;;17.38;46.75
3150;BME280;32503;47.748;8.960;2023-02-19T09:35:38;97749.75;;;17.71;45.98
3150;BME280;32503;47.748;8.960;2023-02-19T09:38:05;97749.81;;;17.81;45.53
3150;BME280;32503;47.748;8.960;2023-02-19T09:40:35;97750.88;;;17.66;45.47
3150;BME280;32503;47.748;8.960;2023-02-19T09:43:07;97761.47;;;17.71;45.38
3150;BME280;32503;47.748;8.960;2023-02-19T09:45:36;97757.78;;;17.49;46.00
3150;BME280;32503;47.748;8.960;2023-02-19T09:48:04;97751.78;;;17.33;46.04
3150;BME280;32503;47.748;8.960;2023-02-19T09:50:47;97754.72;;;17.13;46.90
3150;BME280;32503;47.748;8.960;2023-02-19T09:53:18;97770.63;;;17.04;47.00
3150;BME280;32503;47.748;8.960;2023-02-19T09:55:47;97767.81;;;16.93;46.77
3150;BME280;32503;47.748;8.960;2023-02-19T09:58:24;97740.00;;;16.50;47.69
3150;BME280;32503;47.748;8.960;2023-02-19T10:00:57;97750.81;;;16.43;47.77
3150;BME280;32503;47.748;8.960;2023-02-19T10:03:28;97771.03;;;16.38;47.85
3150;BME280;32503;47.748;8.960;2023-02-19T10:05:58;97759.34;;;16.11;48.42
3150;BME280;32503;47.748;8.960;2023-02-19T10:08:29;97761.56;;;16.02;49.00
3150;BME280;32503;47.748;8.960;2023-02-19T10:10:58;97767.25;;;15.89;49.19
3150;BME280;32503;47.748;8.960;2023-02-19T10:13:31;97780.34;;;15.80;49.76
3150;BME280;32503;47.748;8.960;2023-02-19T10:16:02;97772.59;;;15.82;49.48
3150;BME280;32503;47.748;8.960;2023-02-19T10:18:35;97773.31;;;15.79;49.94
3150;BME280;32503;47.748;8.960;2023-02-19T10:21:05;97779.75;;;15.90;49.66
3150;BME280;32503;47.748;8.960;2023-02-19T10:23:32;97783.66;;;15.93;49.38
3150;BME280;32503;47.748;8.960;2023-02-19T10:26:00;97778.25;;;15.97;48.96
3150;BME280;32503;47.748;8.960;2023-02-19T10:28:32;97783.59;;;15.89;49.67
3150;BME280;32503;47.748;8.960;2023-02-19T10:31:02;97782.19;;;15.99;49.10
3150;BME280;32503;47.748;8.960;2023-02-19T10:33:30;97762.13;;;16.15;48.66
3150;BME280;32503;47.748;8.960;2023-02-19T10:36:00;97737.97;;;16.13;48.14
3150;BME280;32503;47.748;8.960;2023-02-19T10:38:32;97775.25;;;16.62;47.54
3150;BME280;32503;47.748;8.960;2023-02-19T10:41:04;97766.84;;;16.78;47.26
3150;BME280;32503;47.748;8.960;2023-02-19T10:43:36;97779.44;;;16.86;46.99
3150;BME280;32503;47.748;8.960;2023-02-19T10:46:13;97769.59;;;17.16;46.50
3150;BME280;32503;47.748;8.960;2023-02-19T10:48:46;97764.22;;;17.27;45.70
3150;BME280;32503;47.748;8.960;2023-02-19T10:51:15;97766.66;;;17.35;45.92
3150;BME280;32503;47.748;8.960;2023-02-19T10:53:48;97757.56;;;17.24;45.68
3150;BME280;32503;47.748;8.960;2023-02-19T10:56:23;97747.13;;;17.33;45.04
3150;BME280;32503;47.748;8.960;2023-02-19T10:58:52;97766.88;;;17.64;43.13
3150;BME280;32503;47.748;8.960;2023-02-19T11:01:22;97737.97;;;17.59;42.63
3150;BME280;32503;47.748;8.960;2023-02-19T11:03:51;97772.38;;;18.19;42.68
3150;BME280;32503;47.748;8.960;2023-02-19T11:06:20;97746.97;;;18.23;41.75
3150;BME280;32503;47.748;8.960;2023-02-19T11:08:54;97766.50;;;18.21;40.55
3150;BME280;32503;47.748;8.960;2023-02-19T11:11:25;97764.16;;;18.16;40.52
3150;BME280;32503;47.748;8.960;2023-02-19T11:13:56;97773.53;;;18.18;40.80
3150;BME280;32503;47.748;8.960;2023-02-19T11:16:40;97768.84;;;18.23;40.81
3150;BME280;32503;47.748;8.960;2023-02-19T11:19:30;97746.09;;;18.08;40.66
3150;BME280;32503;47.748;8.960;2023-02-19T11:22:00;97770.84;;;17.70;40.69
3150;BME280;32503;47.748;8.960;2023-02-19T11:24:32;97745.59;;;17.39;41.18
3150;BME280;32503;47.748;8.960;2023-02-19T11:27:05;97771.84;;;17.48;41.53
3150;BME280;32503;47.748;8.960;2023-02-19T11:29:34;97762.06;;;17.47;41.63
3150;BME280;32503;47.748;8.960;2023-02-19T11:32:31;97767.34;;;17.25;42.11
3150;BME280;32503;47.748;8.960;2023-02-19T11:35:16;97765.44;;;16.92;42.79
3150;BME280;32503;47.748;8.960;2023-02-19T11:37:54;97745.59;;;16.61;43.20
3150;BME280;32503;47.748;8.960;2023-02-19T11:40:43;97761.47;;;16.55;43.48
3150;BME280;32503;47.748;8.960;2023-02-19T11:43:47;97743.75;;;16.38;43.85
3150;BME280;32503;47.748;8.960;2023-02-19T11:46:23;97742.69;;;16.16;43.90
3150;BME280;32503;47.748;8.960;2023-02-19T11:49:06;97726.13;;;16.02;43.79
3150;BME280;32503;47.748;8.960;2023-02-19T11:52:01;97725.97;;;15.91;44.21
3150;BME280;32503;47.748;8.960;2023-02-19T11:54:56;97734.38;;;15.79;44.31
3150;BME280;32503;47.748;8.960;2023-02-19T11:57:39;97721.91;;;15.78;44.38
3150;BME280;32503;47.748;8.960;2023-02-19T12:00:32;97728.34;;;15.92;44.26
3150;BME280;32503;47.748;8.960;2023-02-19T12:03:30;97734.81;;;16.11;43.90
3150;BME280;32503;47.748;8.960;2023-02-19T12:06:21;97720.03;;;16.12;44.17
3150;BME280;32503;47.748;8.960;2023-02-19T12:09:21;97725.72;;;16.30;43.67
3150;BME280;32503;47.748;8.960;2023-02-19T12:12:05;97732.66;;;16.58;43.70
3150;BME280;32503;47.748;8.960;2023-02-19T12:14:57;97729.91;;;16.54;43.20
3150;BME280;32503;47.748;8.960;2023-02-19T12:17:54;97734.22;;;16.59;43.22
3150;BME280;32503;47.748;8.960;2023-02-19T12:20:35;97736.78;;;16.44;43.24
3150;BME280;32503;47.748;8.960;2023-02-19T12:23:41;97738.97;;;16.32;43.55
3150;BME280;32503;47.748;8.960;2023-02-19T12:26:21;97743.53;;;16.20;44.03
3150;BME280;32503;47.748;8.960;2023-02-19T12:29:17;97753.59;;;16.16;44.15
3150;BME280;32503;47.748;8.960;2023-02-19T12:32:11;97751.84;;;16.01;44.19
3150;BME280;32503;47.748;8.960;2023-02-19T12:38:18;97761.38;;;15.64;44.15
3150;BME280;32503;47.748;8.960;2023-02-19T12:41:02;97760.66;;;15.67;44.25
3150;BME280;32503;47.748;8.960;2023-02-19T12:43:37;97757.78;;;15.57;44.58
3150;BME280;32503;47.748;8.960;2023-02-19T12:46:10;97759.75;;;15.60;44.45
3150;BME280;32503;47.748;8.960;2023-02-19T12:48:44;97746.00;;;15.52;44.77
3150;BME280;32503;47.748;8.960;2023-02-19T12:51:18;97765.19;;;15.60;44.40
3150;BME280;32503;47.748;8.960;2023-02-19T12:53:54;97765.16;;;15.56;44.42
3150;BME280;32503;47.748;8.960;2023-02-19T12:56:28;97759.94;;;15.47;44.34
3150;BME280;32503;47.748;8.960;2023-02-19T12:58:59;97753.34;;;15.48;44.74
3150;BME280;32503;47.748;8.960;2023-02-19T13:01:32;97773.38;;;15.60;44.16
3150;BME280;32503;47.748;8.960;2023-02-19T13:04:18;97763.47;;;15.48;43.64
3150;BME280;32503;47.748;8.960;2023-02-19T13:06:53;97783.88;;;15.58;43.80
3150;BME280;32503;47.748;8.960;2023-02-19T13:09:29;97772.25;;;15.61;44.14
3150;BME280;32503;47.748;8.960;2023-02-19T13:12:03;97762.59;;;15.67;44.12
3150;BME280;32503;47.748;8.960;2023-02-19T13:14:35;97776.50;;;15.81;42.83
3150;BME280;32503;47.748;8.960;2023-02-19T13:17:12;97745.56;;;15.73;41.99
3150;BME280;32503;47.748;8.960;2023-02-19T13:19:44;97759.56;;;15.99;41.13
3150;BME280;32503;47.748;8.960;2023-02-19T13:22:22;97776.69;;;15.96;41.66
3150;BME280;32503;47.748;8.960;2023-02-19T13:25:11;97768.31;;;16.08;41.49
3150;BME280;32503;47.748;8.960;2023-02-19T13:28:23;97764.41;;;16.09;41.18
3150;BME280;32503;47.748;8.960;2023-02-19T13:31:19;97757.03;;;16.09;41.28
3150;BME280;32503;47.748;8.960;2023-02-19T13:34:00;97749.47;;;16.29;41.07
3150;BME280;32503;47.748;8.960;2023-02-19T13:36:30;97745.03;;;16.48;40.63
3150;BME280;32503;47.748;8.960;2023-02-19T13:38:58;97744.16;;;16.74;40.78
3150;BME280;32503;47.748;8.960;2023-02-19T13:41:29;97734.28;;;16.96;40.65